createdAt,value
2019-05-30T00:00:50.632Z,5.84
2019-05-30T00:02:50.671Z,5.76
2019-05-30T00:04:50.178Z,5.72
2019-05-30T00:06:50.577Z,5.71
2019-05-30T00:08:50.663Z,5.69
2019-05-30T00:10:49.689Z,5.69
2019-05-30T00:12:49.732Z,5.60
2019-05-30T00:14:49.784Z,5.56
2019-05-30T00:16:50.024Z,5.50
2019-05-30T00:18:50.132Z,5.44
2019-05-30T00:20:50.280Z,5.41
2019-05-30T00:22:50.423Z,5.35
2019-05-30T00:24:50.536Z,5.34
2019-05-30T00:26:49.835Z,5.30
2019-05-30T00:28:49.986Z,5.30
2019-05-30T00:30:50.021Z,5.30
2019-05-30T00:32:50.000Z,5.25
2019-05-30T00:34:50.590Z,5.18
2019-05-30T00:36:49.749Z,5.15
2019-05-30T00:38:49.857Z,5.10
2019-05-30T00:40:50.023Z,5.05
2019-05-30T00:42:50.115Z,5.04
2019-05-30T00:44:50.222Z,5.08
2019-05-30T00:46:50.556Z,5.08
2019-05-30T00:48:50.699Z,5.06
2019-05-30T00:50:49.866Z,5.07
2019-05-30T00:52:49.979Z,5.03
2019-05-30T00:54:50.287Z,5.00
2019-05-30T00:56:50.523Z,4.95
2019-05-30T00:58:50.568Z,4.88
2019-05-30T01:00:50.668Z,4.87
2019-05-30T01:02:49.938Z,4.83
2019-05-30T01:04:50.492Z,4.80
2019-05-30T01:06:50.600Z,4.77
2019-05-30T01:08:49.742Z,4.72
2019-05-30T01:10:49.833Z,4.71
2019-05-30T01:12:49.940Z,4.69
2019-05-30T01:14:50.104Z,4.67
2019-05-30T01:16:50.307Z,4.66
2019-05-30T01:18:50.470Z,4.66
2019-05-30T01:20:50.674Z,4.60
2019-05-30T01:22:49.894Z,4.61
2019-05-30T01:24:50.181Z,4.60
2019-05-30T01:26:50.618Z,4.57
2019-05-30T01:28:49.772Z,4.52
2019-05-30T01:31:11.626Z,4.51
2019-05-30T01:32:50.587Z,4.50
2019-05-30T01:34:50.263Z,4.53
2019-05-30T01:36:50.445Z,4.55
2019-05-30T01:38:50.669Z,4.55
2019-05-30T01:40:49.820Z,4.56
2019-05-30T01:42:50.001Z,4.54
2019-05-30T01:44:50.131Z,4.47
2019-05-30T01:46:50.381Z,4.47
2019-05-30T01:48:50.484Z,4.46
2019-05-30T01:50:50.451Z,4.46
2019-05-30T01:52:50.524Z,4.45
2019-05-30T01:54:50.561Z,4.45
2019-05-30T01:56:49.731Z,4.43
2019-05-30T01:58:49.757Z,4.43
2019-05-30T02:00:49.702Z,4.42
2019-05-30T02:02:49.841Z,4.36
2019-05-30T02:04:50.358Z,4.31
2019-05-30T02:06:50.581Z,4.26
2019-05-30T02:08:50.410Z,4.25
2019-05-30T02:10:50.526Z,4.23
2019-05-30T02:12:50.621Z,4.19
2019-05-30T02:14:49.787Z,4.19
2019-05-30T02:16:50.120Z,4.14
2019-05-30T02:18:50.344Z,4.11
2019-05-30T02:20:50.577Z,4.11
2019-05-30T02:22:50.569Z,4.11
2019-05-30T02:24:50.680Z,4.09
2019-05-30T02:26:49.936Z,4.08
2019-05-30T02:28:50.077Z,4.09
2019-05-30T02:30:50.232Z,4.05
2019-05-30T02:32:50.305Z,3.99
2019-05-30T02:34:49.996Z,3.95
2019-05-30T02:36:50.280Z,3.91
2019-05-30T02:38:50.408Z,3.90
2019-05-30T02:40:50.598Z,3.89
2019-05-30T02:42:50.683Z,3.92
2019-05-30T02:44:49.684Z,3.93
2019-05-30T02:46:49.981Z,3.92
2019-05-30T02:49:06.201Z,3.88
2019-05-30T02:50:49.738Z,3.84
2019-05-30T02:52:49.876Z,3.81
2019-05-30T02:54:50.019Z,3.77
2019-05-30T02:56:50.283Z,3.74
2019-05-30T02:58:50.344Z,3.76
2019-05-30T03:00:50.405Z,3.75
2019-05-30T03:02:50.470Z,3.75
2019-05-30T03:04:50.063Z,3.76
2019-05-30T03:06:50.334Z,3.73
2019-05-30T03:08:50.419Z,3.71
2019-05-30T03:10:50.546Z,3.70
2019-05-30T03:12:50.603Z,3.68
2019-05-30T03:14:49.825Z,3.66
2019-05-30T03:16:50.035Z,3.66
2019-05-30T03:18:50.222Z,3.64
2019-05-30T03:20:50.389Z,3.62
2019-05-30T03:22:50.430Z,3.61
2019-05-30T03:24:50.597Z,3.59
2019-05-30T03:26:49.753Z,3.59
2019-05-30T03:28:53.950Z,3.58
2019-05-30T03:30:50.249Z,3.60
2019-05-30T03:33:35.472Z,3.59
2019-05-30T03:34:50.484Z,3.60
2019-05-30T03:36:49.821Z,3.60
2019-05-30T03:38:49.971Z,3.56
2019-05-30T03:40:50.096Z,3.54
2019-05-30T03:42:50.175Z,3.53
2019-05-30T03:44:50.373Z,3.54
2019-05-30T03:46:50.590Z,3.55
2019-05-30T03:48:50.653Z,3.65
2019-05-30T03:50:49.761Z,3.69
2019-05-30T03:52:49.890Z,3.71
2019-05-30T03:54:50.073Z,3.72
2019-05-30T03:56:50.406Z,3.77
2019-05-30T03:58:50.535Z,3.79
2019-05-30T04:00:52.047Z,3.80
2019-05-30T04:02:59.776Z,3.80
2019-05-30T04:04:50.505Z,3.81
2019-05-30T04:06:50.571Z,3.84
2019-05-30T04:08:50.666Z,3.90
2019-05-30T04:10:49.860Z,3.94
2019-05-30T04:12:50.235Z,3.98
2019-05-30T04:14:50.393Z,4.06
2019-05-30T04:16:50.530Z,4.14
2019-05-30T04:18:50.618Z,4.22
2019-05-30T04:20:49.854Z,4.29
2019-05-30T04:22:49.943Z,4.32
2019-05-30T04:24:50.105Z,4.39
2019-05-30T04:26:50.563Z,4.45
2019-05-30T04:28:50.725Z,4.53
2019-05-30T04:30:49.806Z,4.60
2019-05-30T04:32:49.948Z,4.72
2019-05-30T04:34:50.441Z,4.83
2019-05-30T04:36:54.208Z,4.95
2019-05-30T04:38:50.328Z,5.07
2019-05-30T04:40:50.389Z,5.18
2019-05-30T04:42:50.513Z,5.27
2019-05-30T04:44:49.781Z,5.42
2019-05-30T04:46:50.126Z,5.52
2019-05-30T04:48:50.241Z,5.63
2019-05-30T04:50:50.311Z,5.76
2019-05-30T04:52:50.398Z,5.76
2019-05-30T04:54:50.500Z,5.98
2019-05-30T04:56:49.763Z,6.05
2019-05-30T04:58:49.856Z,6.20
2019-05-30T05:00:49.984Z,6.28
2019-05-30T05:02:50.043Z,6.36
2019-05-30T05:04:50.415Z,6.49
2019-05-30T05:06:49.810Z,6.59
2019-05-30T05:08:49.930Z,6.74
2019-05-30T05:10:50.038Z,6.82
2019-05-30T05:12:50.132Z,6.90
2019-05-30T05:14:50.213Z,6.97
2019-05-30T05:16:50.431Z,7.11
2019-05-30T05:18:50.538Z,7.21
2019-05-30T05:20:50.679Z,7.39
2019-05-30T05:22:49.760Z,7.53
2019-05-30T05:24:49.804Z,7.62
2019-05-30T05:26:50.020Z,7.74
2019-05-30T05:28:50.159Z,7.79
2019-05-30T05:30:50.197Z,7.89
2019-05-30T05:32:50.406Z,7.88
2019-05-30T05:34:52.520Z,7.85
2019-05-30T05:36:50.504Z,7.90
2019-05-30T05:38:50.585Z,8.09
2019-05-30T05:40:50.033Z,8.17
2019-05-30T05:42:50.172Z,8.24
2019-05-30T05:44:50.217Z,8.32
2019-05-30T05:46:50.530Z,8.45
2019-05-30T05:48:50.531Z,8.56
2019-05-30T05:50:50.572Z,8.67
2019-05-30T05:52:50.596Z,8.86
2019-05-30T05:54:49.697Z,8.96
2019-05-30T05:56:49.853Z,9.11
2019-05-30T05:58:49.947Z,9.15
2019-05-30T06:00:50.042Z,9.21
2019-05-30T06:02:50.052Z,9.24
2019-05-30T06:04:50.525Z,9.36
2019-05-30T06:06:49.727Z,9.61
2019-05-30T06:08:49.730Z,9.74
2019-05-30T06:10:49.809Z,9.98
2019-05-30T06:12:49.893Z,9.98
2019-05-30T06:14:50.020Z,10.27
2019-05-30T06:16:50.292Z,10.41
2019-05-30T06:18:50.464Z,10.55
2019-05-30T06:20:50.487Z,10.66
2019-05-30T06:22:50.652Z,10.71
2019-05-30T06:24:49.758Z,10.78
2019-05-30T06:26:50.014Z,10.83
2019-05-30T06:28:50.089Z,10.96
2019-05-30T06:30:50.135Z,11.07
2019-05-30T06:32:50.350Z,11.20
2019-05-30T06:34:49.995Z,11.33
2019-05-30T06:36:50.227Z,11.52
2019-05-30T06:38:50.381Z,11.57
2019-05-30T06:40:50.459Z,11.68
2019-05-30T06:42:50.545Z,11.77
2019-05-30T06:44:50.609Z,12.03
2019-05-30T06:46:49.807Z,12.14
2019-05-30T06:48:49.801Z,12.27
2019-05-30T06:50:49.893Z,12.36
2019-05-30T06:52:49.988Z,12.52
2019-05-30T06:54:50.042Z,12.67
2019-05-30T06:56:50.325Z,12.80
2019-05-30T06:58:50.345Z,12.88
2019-05-30T07:00:50.402Z,13.02
2019-05-30T07:02:50.785Z,13.10
2019-05-30T07:04:54.715Z,13.25
2019-05-30T07:06:51.402Z,13.33
2019-05-30T07:08:50.039Z,13.45
2019-05-30T07:10:50.120Z,13.52
2019-05-30T07:12:50.218Z,13.62
2019-05-30T07:14:50.289Z,13.65
2019-05-30T07:16:50.387Z,13.72
2019-05-30T07:18:50.482Z,13.74
2019-05-30T07:20:50.615Z,13.88
2019-05-30T07:22:49.759Z,13.97
2019-05-30T07:24:49.868Z,14.10
2019-05-30T07:26:50.227Z,14.23
2019-05-30T07:28:50.331Z,14.24
2019-05-30T07:30:50.535Z,14.28
2019-05-30T07:32:50.582Z,14.39
2019-05-30T07:35:07.804Z,14.49
2019-05-30T07:36:50.594Z,14.6
2019-05-30T07:38:49.683Z,14.68
2019-05-30T07:40:49.844Z,14.76
2019-05-30T07:42:49.977Z,14.8
2019-05-30T07:44:50.075Z,14.84
2019-05-30T07:46:50.301Z,15.0
2019-05-30T07:48:50.403Z,15.1
2019-05-30T07:50:50.484Z,15.1
2019-05-30T07:52:50.517Z,15.2
2019-05-30T07:54:50.613Z,15.2
2019-05-30T07:56:49.695Z,15.3
2019-05-30T07:58:49.719Z,15.4
2019-05-30T08:00:49.754Z,15.4
2019-05-30T08:02:49.949Z,15.5
2019-05-30T08:04:50.531Z,15.6
2019-05-30T08:06:50.019Z,15.7
2019-05-30T08:08:50.052Z,15.8
2019-05-30T08:10:50.225Z,15.8
2019-05-30T08:12:50.263Z,15.9
2019-05-30T08:14:50.430Z,15.9
2019-05-30T08:16:49.687Z,16.0
2019-05-30T08:18:49.874Z,16.1
2019-05-30T08:20:49.850Z,16.1
2019-05-30T08:22:49.958Z,16.1
2019-05-30T08:24:50.044Z,16.2
2019-05-30T08:26:50.350Z,16.2
2019-05-30T08:28:50.483Z,16.22
2019-05-30T08:30:50.551Z,16.3
2019-05-30T08:32:50.610Z,16.4
2019-05-30T08:34:50.254Z,16.4
2019-05-30T08:36:50.433Z,16.5
2019-05-30T08:38:50.550Z,16.6
2019-05-30T08:40:50.644Z,16.6
2019-05-30T08:42:50.709Z,16.7
2019-05-30T08:44:49.877Z,16.8
2019-05-30T08:46:50.221Z,16.8
2019-05-30T08:48:50.389Z,16.9
2019-05-30T08:50:50.492Z,16.9
2019-05-30T08:52:50.644Z,17.0
2019-05-30T08:54:49.813Z,17.0
2019-05-30T08:56:50.289Z,17.0
2019-05-30T08:58:50.408Z,17.1
2019-05-30T09:00:50.493Z,17.1
2019-05-30T09:02:50.625Z,17.2
2019-05-30T09:04:50.052Z,17.2
2019-05-30T09:06:50.199Z,17.2
2019-05-30T09:08:50.276Z,17.2
2019-05-30T09:10:50.417Z,17.3
2019-05-30T09:12:50.579Z,17.4
2019-05-30T09:14:49.686Z,17.29
2019-05-30T09:16:51.425Z,17.26
2019-05-30T09:18:49.929Z,17.39
2019-05-30T09:20:50.083Z,17.5
2019-05-30T09:22:50.175Z,17.6
2019-05-30T09:24:50.423Z,17.6
2019-05-30T09:26:50.807Z,17.6
2019-05-30T09:28:49.846Z,17.7
2019-05-30T09:30:49.988Z,17.7
2019-05-30T09:32:50.019Z,17.7
2019-05-30T09:34:50.642Z,17.8
2019-05-30T09:36:49.788Z,17.8
2019-05-30T09:38:50.102Z,17.7
2019-05-30T09:40:50.134Z,17.8
2019-05-30T09:42:50.919Z,17.8
2019-05-30T09:44:52.460Z,17.8
2019-05-30T09:46:50.878Z,17.8
2019-05-30T09:48:52.069Z,17.8
2019-05-30T09:50:51.462Z,17.9
2019-05-30T09:52:51.708Z,18.0
2019-05-30T09:54:50.602Z,18.0
2019-05-30T09:56:57.207Z,18.0
2019-05-30T09:58:52.006Z,18.0
2019-05-30T10:00:52.484Z,18.1
2019-05-30T10:02:52.181Z,18.1
2019-05-30T10:04:50.740Z,18.1
2019-05-30T10:06:50.829Z,18.2
2019-05-30T10:08:51.436Z,18.2
2019-05-30T10:10:51.685Z,18.2
2019-05-30T10:12:50.681Z,18.2
2019-05-30T10:14:52.914Z,18.3
2019-05-30T10:16:58.256Z,18.4
2019-05-30T10:18:51.107Z,18.4
2019-05-30T10:20:53.929Z,18.5
2019-05-30T10:22:54.114Z,18.5
2019-05-30T10:24:51.588Z,18.6
2019-05-30T10:26:51.280Z,18.6
2019-05-30T10:28:51.703Z,18.6
2019-05-30T10:30:59.619Z,18.7
2019-05-30T10:32:53.619Z,18.7
2019-05-30T10:34:53.799Z,18.7
2019-05-30T10:36:51.964Z,18.7
2019-05-30T10:38:53.791Z,18.8
2019-05-30T10:40:52.599Z,18.8
2019-05-30T10:42:56.840Z,18.8
2019-05-30T10:44:54.732Z,18.8
2019-05-30T10:46:54.719Z,18.8
2019-05-30T10:48:54.305Z,18.9
2019-05-30T10:50:50.882Z,18.9
2019-05-30T10:52:51.639Z,19.0
2019-05-30T10:54:51.819Z,18.9
2019-05-30T10:56:51.620Z,19.0
2019-05-30T10:58:51.141Z,19.0
2019-05-30T11:00:56.145Z,19.0
2019-05-30T11:02:52.963Z,19.0
2019-05-30T11:04:53.228Z,19.1
2019-05-30T11:07:12.283Z,19.2
2019-05-30T11:08:50.929Z,19.3
2019-05-30T11:10:50.923Z,19.3
2019-05-30T11:13:06.276Z,19.4
2019-05-30T11:14:51.755Z,19.4
2019-05-30T11:16:53.472Z,19.4
2019-05-30T11:18:56.147Z,19.5
2019-05-30T11:20:50.373Z,19.5
2019-05-30T11:22:50.442Z,19.5
2019-05-30T11:24:50.676Z,19.5
2019-05-30T11:26:57.111Z,19.6
2019-05-30T11:28:50.798Z,19.6
2019-05-30T11:30:50.925Z,19.6
2019-05-30T11:32:51.237Z,19.7
2019-05-30T11:34:51.423Z,19.7
2019-05-30T11:36:51.077Z,19.8
2019-05-30T11:38:54.995Z,19.8
2019-05-30T11:40:51.663Z,19.8
2019-05-30T11:42:49.787Z,19.8
2019-05-30T11:44:51.505Z,19.9
2019-05-30T11:46:49.722Z,20.0
2019-05-30T11:48:49.873Z,20.0
2019-05-30T11:50:52.248Z,20.0
2019-05-30T11:52:50.134Z,20.1
2019-05-30T11:54:50.252Z,20.1
2019-05-30T11:56:50.428Z,20.1
2019-05-30T11:58:50.420Z,20.1
2019-05-30T12:00:50.550Z,20.1
2019-05-30T12:02:50.536Z,20.1
2019-05-30T12:04:50.822Z,20.2
2019-05-30T12:06:54.550Z,20.2
2019-05-30T12:08:50.948Z,20.2
2019-05-30T12:10:51.412Z,20.2
2019-05-30T12:12:51.489Z,20.4
2019-05-30T12:14:51.556Z,20.4
2019-05-30T12:16:51.425Z,20.4
2019-05-30T12:18:51.700Z,20.5
2019-05-30T12:20:49.774Z,20.5
2019-05-30T12:22:49.918Z,20.5
2019-05-30T12:24:50.085Z,20.5
2019-05-30T12:26:51.928Z,20.5
2019-05-30T12:28:49.962Z,20.6
2019-05-30T12:31:06.814Z,20.6
2019-05-30T12:32:49.699Z,20.6
2019-05-30T12:34:50.398Z,20.6
2019-05-30T12:36:49.697Z,20.8
2019-05-30T12:38:49.797Z,20.8
2019-05-30T12:40:49.820Z,20.9
2019-05-30T12:42:51.852Z,20.9
2019-05-30T12:44:50.380Z,20.9
2019-05-30T12:46:50.669Z,21.0
2019-05-30T12:48:49.791Z,21.0
2019-05-30T12:50:49.927Z,21.0
2019-05-30T12:52:50.060Z,21.0
2019-05-30T12:54:50.131Z,21.0
2019-05-30T12:56:50.333Z,20.9
2019-05-30T12:58:50.424Z,20.9
2019-05-30T13:00:50.520Z,20.9
2019-05-30T13:02:50.631Z,20.8
2019-05-30T13:04:50.141Z,20.8
2019-05-30T13:06:58.174Z,20.8
2019-05-30T13:08:50.478Z,20.8
2019-05-30T13:10:50.608Z,20.9
2019-05-30T13:12:49.763Z,20.9
2019-05-30T13:14:49.924Z,21.0
2019-05-30T13:16:50.232Z,21.0
2019-05-30T13:18:50.406Z,21.0
2019-05-30T13:20:50.546Z,20.9
2019-05-30T13:22:50.601Z,20.9
2019-05-30T13:24:49.734Z,20.9
2019-05-30T13:26:49.988Z,20.8
2019-05-30T13:28:50.023Z,20.9
2019-05-30T13:30:50.160Z,21.0
2019-05-30T13:32:50.394Z,21.0
2019-05-30T13:34:49.938Z,21.1
2019-05-30T13:36:50.221Z,21.2
2019-05-30T13:38:50.267Z,21.2
2019-05-30T13:40:50.375Z,21.4
2019-05-30T13:42:50.528Z,21.4
2019-05-30T13:44:50.577Z,21.5
2019-05-30T13:46:49.943Z,21.6
2019-05-30T13:48:50.030Z,21.6
2019-05-30T13:50:50.262Z,21.6
2019-05-30T13:52:50.447Z,21.7
2019-05-30T13:54:50.502Z,21.8
2019-05-30T13:56:50.722Z,21.8
2019-05-30T13:58:49.747Z,21.8
2019-05-30T14:00:49.935Z,21.9
2019-05-30T14:02:49.976Z,21.9
2019-05-30T14:04:50.479Z,22.0
2019-05-30T14:06:50.706Z,22.2
2019-05-30T14:08:51.111Z,22.4
2019-05-30T14:10:50.241Z,22.5
2019-05-30T14:12:50.291Z,22.5
2019-05-30T14:14:50.454Z,22.7
2019-05-30T14:16:50.608Z,22.9
2019-05-30T14:18:49.754Z,22.9
2019-05-30T14:20:49.803Z,22.9
2019-05-30T14:22:50.093Z,22.8
2019-05-30T14:24:50.204Z,22.8
2019-05-30T14:26:50.373Z,22.7
2019-05-30T14:28:50.464Z,22.6
2019-05-30T14:30:50.499Z,22.6
2019-05-30T14:32:49.915Z,22.5
2019-05-30T14:34:50.274Z,22.5
2019-05-30T14:36:50.441Z,22.5
2019-05-30T14:38:59.374Z,22.5
2019-05-30T14:40:50.462Z,22.5
2019-05-30T14:42:49.696Z,22.6
2019-05-30T14:44:51.121Z,22.8
2019-05-30T14:46:50.293Z,22.9
2019-05-30T14:48:50.378Z,22.9
2019-05-30T14:50:50.566Z,23.0
2019-05-30T14:52:50.660Z,23.1
2019-05-30T14:54:49.693Z,23.2
2019-05-30T14:56:50.030Z,23.2
2019-05-30T14:58:50.208Z,23.2
2019-05-30T15:00:50.286Z,23.2
2019-05-30T15:02:50.347Z,23.2
2019-05-30T15:04:50.050Z,23.1
2019-05-30T15:06:50.301Z,23.0
2019-05-30T15:08:50.372Z,23.0
2019-05-30T15:10:50.455Z,22.8
2019-05-30T15:12:50.509Z,22.8
2019-05-30T15:14:50.604Z,22.8
2019-05-30T15:16:49.877Z,22.6
2019-05-30T15:18:49.979Z,22.6
2019-05-30T15:20:50.109Z,22.5
2019-05-30T15:22:50.154Z,22.3
2019-05-30T15:24:50.192Z,22.3
2019-05-30T15:26:50.335Z,22.3
2019-05-30T15:28:50.413Z,22.3
2019-05-30T15:30:50.552Z,22.3
2019-05-30T15:32:50.605Z,22.3
2019-05-30T15:34:50.197Z,22.3
2019-05-30T15:36:50.464Z,22.4
2019-05-30T15:38:50.554Z,22.4
2019-05-30T15:40:49.814Z,22.4
2019-05-30T15:42:53.489Z,22.4
2019-05-30T15:44:50.616Z,22.4
2019-05-30T15:46:49.764Z,22.6
2019-05-30T15:48:49.902Z,22.7
2019-05-30T15:50:50.045Z,22.9
2019-05-30T15:52:50.140Z,22.9
2019-05-30T15:54:50.348Z,22.9
2019-05-30T15:56:50.628Z,22.9
2019-05-30T15:58:49.707Z,23.0
2019-05-30T16:00:49.804Z,23.0
2019-05-30T16:02:50.132Z,23.0
2019-05-30T16:04:49.732Z,23.1
2019-05-30T16:06:49.975Z,23.1
2019-05-30T16:08:50.092Z,23.2
2019-05-30T16:10:50.237Z,23.2
2019-05-30T16:12:50.405Z,23.2
2019-05-30T16:14:50.499Z,23.02
2019-05-30T16:16:49.750Z,23.1
2019-05-30T16:18:49.766Z,23.0
2019-05-30T16:20:49.900Z,23.1
2019-05-30T16:22:49.967Z,23.2
2019-05-30T16:24:50.075Z,23.2
2019-05-30T16:26:50.334Z,23.3
2019-05-30T16:28:50.405Z,23.5
2019-05-30T16:30:50.564Z,23.5
2019-05-30T16:32:50.605Z,23.6
2019-05-30T16:34:50.445Z,23.7
2019-05-30T16:36:50.523Z,23.8
2019-05-30T16:38:50.674Z,23.8
2019-05-30T16:40:50.692Z,23.9
2019-05-30T16:42:49.861Z,23.9
2019-05-30T16:44:49.887Z,23.8
2019-05-30T16:46:50.118Z,23.8
2019-05-30T16:48:50.233Z,23.6
2019-05-30T16:50:50.342Z,23.6
2019-05-30T16:52:50.445Z,23.6
2019-05-30T16:54:50.591Z,23.6
2019-05-30T16:56:49.862Z,23.38
2019-05-30T16:58:49.945Z,22.74
2019-05-30T17:00:50.082Z,22.41
2019-05-30T17:02:50.194Z,22.02
2019-05-30T17:04:49.835Z,21.75
2019-05-30T17:06:50.015Z,21.54
2019-05-30T17:08:50.081Z,21.45
2019-05-30T17:10:50.232Z,21.07
2019-05-30T17:12:50.339Z,20.86
2019-05-30T17:14:50.495Z,20.74
2019-05-30T17:16:49.888Z,20.66
2019-05-30T17:18:49.995Z,20.58
2019-05-30T17:20:50.247Z,20.57
2019-05-30T17:22:50.338Z,20.51
2019-05-30T17:24:50.419Z,20.47
2019-05-30T17:26:52.399Z,20.41
2019-05-30T17:28:50.484Z,20.37
2019-05-30T17:30:50.562Z,20.32
2019-05-30T17:32:50.578Z,20.25
2019-05-30T17:34:50.332Z,20.14
2019-05-30T17:36:50.582Z,20.01
2019-05-30T17:38:50.631Z,19.98
2019-05-30T17:40:50.105Z,19.96
2019-05-30T17:42:50.149Z,19.97
2019-05-30T17:44:50.208Z,19.95
2019-05-30T17:46:50.531Z,19.89
2019-05-30T17:48:50.619Z,19.85
2019-05-30T17:50:50.682Z,19.79
2019-05-30T17:52:49.708Z,19.76
2019-05-30T17:54:49.815Z,19.69
2019-05-30T17:56:50.129Z,19.63
2019-05-30T17:58:50.258Z,19.59
2019-05-30T18:00:50.437Z,19.57
2019-05-30T18:02:50.606Z,19.54
2019-05-30T18:04:50.278Z,19.51
2019-05-30T18:06:50.482Z,19.48
2019-05-30T18:08:50.593Z,19.48
2019-05-30T18:10:54.536Z,19.43
2019-05-30T18:12:50.607Z,19.41
2019-05-30T18:14:50.654Z,19.39
2019-05-30T18:16:49.800Z,19.36
2019-05-30T18:18:49.909Z,19.30
2019-05-30T18:20:49.945Z,19.28
2019-05-30T18:22:50.029Z,19.24
2019-05-30T18:24:50.119Z,19.22
2019-05-30T18:26:50.376Z,19.18
2019-05-30T18:28:50.448Z,19.17
2019-05-30T18:30:50.558Z,19.11
2019-05-30T18:32:49.742Z,19.10
2019-05-30T18:34:50.281Z,19.07
2019-05-30T18:36:50.592Z,19.03
2019-05-30T18:38:50.723Z,19.00
2019-05-30T18:40:49.823Z,18.99
2019-05-30T18:42:49.966Z,18.97
2019-05-30T18:44:50.037Z,18.94
2019-05-30T18:46:50.268Z,18.94
2019-05-30T18:48:50.318Z,18.92
2019-05-30T18:50:50.380Z,18.91
2019-05-30T18:52:50.493Z,18.90
2019-05-30T18:54:50.701Z,18.89
2019-05-30T18:56:49.788Z,18.89
2019-05-30T18:58:49.886Z,18.85
2019-05-30T19:00:49.948Z,18.83
2019-05-30T19:02:49.913Z,18.81
2019-05-30T19:04:50.403Z,18.80
2019-05-30T19:06:50.570Z,18.77
2019-05-30T19:08:50.643Z,18.74
2019-05-30T19:10:49.781Z,18.72
2019-05-30T19:12:49.923Z,18.69
2019-05-30T19:14:49.967Z,18.66
2019-05-30T19:16:50.260Z,18.63
2019-05-30T19:18:50.338Z,18.60
2019-05-30T19:20:50.283Z,18.57
2019-05-30T19:22:50.336Z,18.54
2019-05-30T19:24:50.417Z,18.53
2019-05-30T19:26:50.681Z,18.51
2019-05-30T19:28:49.750Z,18.49
2019-05-30T19:30:49.829Z,18.48
2019-05-30T19:32:49.840Z,18.47
2019-05-30T19:34:50.382Z,18.45
2019-05-30T19:36:50.548Z,18.42
2019-05-30T19:38:50.627Z,18.40
2019-05-30T19:40:50.802Z,18.38
2019-05-30T19:42:49.914Z,18.38
2019-05-30T19:44:49.976Z,18.37
2019-05-30T19:46:50.245Z,18.36
2019-05-30T19:48:50.362Z,18.36
2019-05-30T19:50:50.462Z,18.35
2019-05-30T19:52:50.659Z,18.35
2019-05-30T19:54:50.013Z,18.37
2019-05-30T19:56:50.277Z,18.37
2019-05-30T19:58:50.402Z,18.36
2019-05-30T20:00:59.493Z,18.36
2019-05-30T20:02:50.536Z,18.35
2019-05-30T20:04:50.116Z,18.33
2019-05-30T20:06:50.381Z,18.29
2019-05-30T20:08:56.368Z,18.28
2019-05-30T20:10:50.481Z,18.26
2019-05-30T20:12:50.574Z,18.25
2019-05-30T20:14:50.662Z,18.24
2019-05-30T20:16:49.805Z,18.21
2019-05-30T20:18:49.925Z,18.19
2019-05-30T20:20:58.463Z,18.16
2019-05-30T20:22:50.564Z,18.14
2019-05-30T20:24:50.626Z,18.14
2019-05-30T20:26:49.945Z,18.13
2019-05-30T20:28:49.953Z,18.10
2019-05-30T20:30:50.044Z,18.08
2019-05-30T20:32:50.222Z,18.06
2019-05-30T20:34:49.758Z,18.06
2019-05-30T20:36:50.036Z,18.05
2019-05-30T20:38:50.132Z,18.05
2019-05-30T20:40:50.334Z,18.05
2019-05-30T20:42:50.410Z,18.04
2019-05-30T20:44:50.437Z,18.04
2019-05-30T20:46:49.723Z,18.01
2019-05-30T20:48:49.750Z,18.01
2019-05-30T20:50:49.847Z,18.00
2019-05-30T20:52:49.922Z,17.99
2019-05-30T20:54:49.919Z,17.98
2019-05-30T20:56:52.202Z,17.97
2019-05-30T20:58:50.344Z,17.95
2019-05-30T21:00:50.417Z,17.93
2019-05-30T21:02:50.459Z,17.92
2019-05-30T21:04:50.066Z,17.86
2019-05-30T21:06:50.338Z,17.83
2019-05-30T21:08:50.537Z,17.81
2019-05-30T21:10:50.623Z,17.81
2019-05-30T21:12:49.924Z,17.81
2019-05-30T21:14:50.112Z,17.79
2019-05-30T21:16:50.350Z,17.79
2019-05-30T21:18:50.605Z,17.78
2019-05-30T21:20:49.748Z,17.75
2019-05-30T21:22:49.854Z,17.73
2019-05-30T21:24:49.956Z,17.72
2019-05-30T21:26:50.238Z,17.72
2019-05-30T21:28:50.304Z,17.69
2019-05-30T21:30:50.482Z,17.68
2019-05-30T21:32:51.355Z,17.68
2019-05-30T21:34:51.372Z,17.67
2019-05-30T21:36:50.119Z,17.66
2019-05-30T21:38:50.197Z,17.63
2019-05-30T21:40:50.345Z,17.62
2019-05-30T21:43:07.529Z,17.59
2019-05-30T21:44:53.237Z,17.58
2019-05-30T21:46:50.451Z,17.54
2019-05-30T21:48:50.535Z,17.52
2019-05-30T21:50:50.598Z,17.48
2019-05-30T21:52:50.628Z,17.45
2019-05-30T21:54:50.680Z,17.43
2019-05-30T21:56:50.642Z,17.41
2019-05-30T21:58:50.771Z,17.40
2019-05-30T22:00:51.288Z,17.38
2019-05-30T22:02:51.115Z,17.37
2019-05-30T22:04:51.048Z,17.35
2019-05-30T22:06:51.348Z,17.32
2019-05-30T22:08:51.820Z,17.32
2019-05-30T22:10:49.941Z,17.29
2019-05-30T22:12:50.070Z,17.28
2019-05-30T22:14:50.173Z,17.27
2019-05-30T22:16:52.024Z,17.26
2019-05-30T22:18:50.500Z,17.25
2019-05-30T22:20:50.561Z,17.24
2019-05-30T22:22:50.578Z,17.22
2019-05-30T22:24:50.738Z,17.21
2019-05-30T22:26:51.041Z,17.20
2019-05-30T22:28:50.832Z,17.20
2019-05-30T22:30:50.902Z,17.18
2019-05-30T22:32:51.073Z,17.17
2019-05-30T22:34:51.180Z,17.14
2019-05-30T22:36:51.292Z,17.11
2019-05-30T22:38:51.329Z,17.10
2019-05-30T22:40:50.359Z,17.07
2019-05-30T22:42:50.496Z,17.06
2019-05-30T22:44:50.581Z,17.02
2019-05-30T22:46:50.582Z,17.01
2019-05-30T22:48:50.805Z,16.98
2019-05-30T22:50:51.018Z,16.94
2019-05-30T22:52:51.179Z,16.93
2019-05-30T22:54:51.489Z,16.91
2019-05-30T22:56:51.795Z,16.89
2019-05-30T22:58:51.901Z,16.85
2019-05-30T23:00:50.315Z,16.84
2019-05-30T23:02:50.361Z,16.83
2019-05-30T23:04:50.503Z,16.82
2019-05-30T23:06:50.673Z,16.81
2019-05-30T23:08:50.915Z,16.78
2019-05-30T23:10:50.014Z,16.77
2019-05-30T23:12:50.059Z,16.75
2019-05-30T23:14:50.392Z,16.74
2019-05-30T23:16:51.986Z,16.72
2019-05-30T23:18:50.689Z,16.70
2019-05-30T23:20:50.903Z,16.68
2019-05-30T23:22:51.232Z,16.68
2019-05-30T23:24:55.617Z,16.65
2019-05-30T23:26:49.876Z,16.63
2019-05-30T23:28:50.023Z,16.61
2019-05-30T23:30:50.167Z,16.60
2019-05-30T23:32:51.834Z,16.60
2019-05-30T23:34:50.681Z,16.58
2019-05-30T23:36:50.809Z,16.58
2019-05-30T23:38:51.073Z,16.57
2019-05-30T23:40:51.339Z,16.56
2019-05-30T23:42:51.290Z,16.55
2019-05-30T23:44:51.538Z,16.53
2019-05-30T23:46:49.762Z,16.52
2019-05-30T23:48:49.904Z,16.49
2019-05-30T23:50:50.079Z,16.45
2019-05-30T23:52:50.412Z,16.43
2019-05-30T23:54:50.412Z,16.40
2019-05-30T23:56:52.014Z,16.38
2019-05-30T23:58:50.909Z,16.34
